Archived

This topic is now archived and is closed to further replies.

AlphaInfinity

Jeppesen weather not working in FSX

Recommended Posts

Can somebody try opening FSX and grabbing real world weather for KMSO and tell me what you are getting? It should be something like this:http://www.accuweather.com/us/mt/missoula/59801/city-weather-forecast.aspI want to make sure I don't have something strange going on with my machine. REX isn't any better. This is NOT the correct weather:weather1.jpg

Share this post


Link to post
Share on other sites
Help AVSIM continue to serve you!
Please donate today!

Can somebody try opening FSX and grabbing real world weather for KMSO and tell me what you are getting? It should be something like this:http://www.accuweath...er-forecast.aspI want to make sure I don't have something strange going on with my machine. REX isn't any better. This is NOT the correct weather:
It's not your machine. NOAA's cycle feed doesn't have KMSO and even their direct station lookup has a METAR that's over 12 hours old. Perhaps that's why it's not in FSX - maybe old "real world" data is rejected?KMSO does seem to be publishing METARs though - KMSO 210853Z AUTO 36006KT 10SM OVC035 M03/M05 A3017 - so it's just a glitch somewhere. But not with your rig. :(

Share this post


Link to post
Share on other sites